Time;durP1;ratioP1;P1;durP2;ratioP2;P2;SDS_P1;SDS_P2;PMS_P1;PMS_P2;Temp;Humidity;BMP_temperature;BMP_pressure;BME280_temperature;BME280_humidity;BME280_pressure;Samples;Min_cycle;Max_cycle;Signal;HPM_P1;HPM_P2
2022/12/29 00:01:13;;;;;;;;;;;11.00;99.90;;;;;;5031685;28;19921;-66
2022/12/29 00:03:39;;;;;;;;;;;11.00;99.90;;;;;;5030934;28;20406;-66
2022/12/29 00:06:04;;;;;;;;;;;11.00;99.90;;;;;;5031381;28;19913;-73
2022/12/29 00:08:39;;;;;;;;;;;11.00;99.90;;;;;;5030687;28;19953;-66
2022/12/29 00:11:08;;;;;;;;;;;11.10;99.90;;;;;;5030904;28;19921;-66
2022/12/29 00:16:17;;;;;;;;;;;11.00;99.90;;;;;;5030840;28;20004;-66
2022/12/29 00:18:43;;;;;;;;;;;11.00;99.90;;;;;;5030538;28;20406;-66
2022/12/29 00:35:09;;;;;;;;;;;11.20;99.90;;;;;;5029457;28;19916;-65
2022/12/29 00:45:55;;;;;;;;;;;11.50;99.90;;;;;;5029832;28;19971;-66
2022/12/29 00:51:06;;;;;;;;;;;11.60;99.90;;;;;;5029927;28;20005;-67
2022/12/29 00:53:31;;;;;;;;;;;11.60;99.90;;;;;;5029835;28;20004;-65
2022/12/29 00:55:57;;;;;;;;;;;11.80;99.90;;;;;;5029493;28;20285;-65
2022/12/29 00:58:22;;;;;;;;;;;11.90;99.90;;;;;;5030369;28;19909;-66
2022/12/29 01:00:48;;;;;;;;;;;12.00;99.90;;;;;;5030249;28;19952;-64
2022/12/29 01:03:13;;;;;;;;;;;12.10;99.90;;;;;;5029625;28;19913;-65
2022/12/29 01:05:39;;;;;;;;;;;12.10;99.90;;;;;;5030245;28;19920;-64
2022/12/29 01:08:04;;;;;;;;;;;12.10;99.90;;;;;;5030022;28;19920;-65
2022/12/29 01:10:30;;;;;;;;;;;12.10;99.90;;;;;;5030208;28;19917;-65
2022/12/29 01:12:55;;;;;;;;;;;12.20;99.90;;;;;;5029931;28;19916;-65
2022/12/29 01:15:21;;;;;;;;;;;12.20;99.90;;;;;;5030309;28;19961;-65
2022/12/29 01:17:46;;;;;;;;;;;12.30;99.90;;;;;;5030676;28;19956;-65
2022/12/29 01:20:12;;;;;;;;;;;12.30;99.90;;;;;;5030578;28;19952;-66
2022/12/29 01:22:38;;;;;;;;;;;12.30;99.90;;;;;;5030103;28;20271;-67
2022/12/29 01:25:04;;;;;;;;;;;12.30;99.90;;;;;;5030016;28;19953;-67
2022/12/29 01:27:29;;;;;;;;;;;12.40;99.90;;;;;;5030187;28;19963;-67
2022/12/29 01:29:54;;;;;;;;;;;12.50;99.90;;;;;;5030011;28;19969;-67
2022/12/29 01:32:20;;;;;;;;;;;12.50;99.90;;;;;;5029889;28;19909;-67
2022/12/29 01:34:45;;;;;;;;;;;12.50;99.90;;;;;;5030221;28;20058;-66
2022/12/29 01:37:11;;;;;;;;;;;12.60;99.90;;;;;;5030196;28;20051;-66
2022/12/29 01:39:36;;;;;;;;;;;12.60;99.90;;;;;;5029810;28;19921;-66
2022/12/29 01:42:02;;;;;;;;;;;12.60;99.90;;;;;;5029741;28;20250;-65
2022/12/29 01:44:46;;;;;;;;;;;12.90;99.90;;;;;;5029765;28;20395;-66
2022/12/29 01:47:14;;;;;;;;;;;12.90;99.90;;;;;;5028667;28;19917;-66
2022/12/29 01:49:39;;;;;;;;;;;12.80;99.90;;;;;;5028368;28;19997;-65
2022/12/29 01:52:06;;;;;;;;;;;12.80;99.90;;;;;;5028120;28;20434;-65
2022/12/29 01:54:34;;;;;;;;;;;12.80;99.90;;;;;;5029995;28;19924;-64
2022/12/29 01:57:01;;;;;;;;;;;12.80;99.90;;;;;;5029558;28;20443;-65
2022/12/29 01:59:29;;;;;;;;;;;12.90;99.90;;;;;;5029804;28;19916;-66
2022/12/29 02:01:54;;;;;;;;;;;12.90;99.90;;;;;;5030174;28;19916;-64
2022/12/29 02:04:22;;;;;;;;;;;12.90;99.90;;;;;;5033149;28;19913;-65
2022/12/29 02:06:55;;;;;;;;;;;12.90;99.90;;;;;;5033044;28;19916;-65
2022/12/29 02:09:21;;;;;;;;;;;12.80;99.90;;;;;;5033710;28;19917;-64
2022/12/29 02:11:47;;;;;;;;;;;12.80;99.90;;;;;;5033098;28;19910;-66
2022/12/29 02:14:13;;;;;;;;;;;12.80;99.90;;;;;;5032821;28;19920;-66
2022/12/29 02:16:41;;;;;;;;;;;12.70;99.90;;;;;;5032819;28;20037;-63
2022/12/29 02:19:30;;;;;;;;;;;12.80;99.90;;;;;;5032723;28;19924;-66
2022/12/29 02:22:13;;;;;;;;;;;12.80;99.90;;;;;;5032945;28;19909;-66
2022/12/29 02:24:45;;;;;;;;;;;12.80;99.90;;;;;;5032392;28;20749;-66
2022/12/29 02:27:24;;;;;;;;;;;12.80;99.90;;;;;;5031824;28;20398;-66
2022/12/29 02:30:02;;;;;;;;;;;12.90;99.90;;;;;;5030721;28;20327;-66
2022/12/29 02:32:46;;;;;;;;;;;12.70;99.90;;;;;;5030166;28;19917;-65
2022/12/29 02:35:33;;;;;;;;;;;12.70;99.90;;;;;;5032828;28;19909;-66
2022/12/29 02:38:21;;;;;;;;;;;12.70;99.90;;;;;;5032749;28;20003;-66
2022/12/29 02:40:56;;;;;;;;;;;12.60;99.90;;;;;;5025282;28;19924;-66
2022/12/29 02:43:36;;;;;;;;;;;12.70;99.90;;;;;;5032316;28;19916;-66
2022/12/29 02:46:20;;;;;;;;;;;12.60;99.90;;;;;;5032065;28;19972;-66
2022/12/29 02:48:51;;;;;;;;;;;12.60;99.90;;;;;;5032985;28;19910;-65
2022/12/29 02:51:19;;;;;;;;;;;12.60;99.90;;;;;;5031869;28;19920;-65
2022/12/29 02:56:29;;;;;;;;;;;12.60;99.90;;;;;;5032573;28;19916;-65
2022/12/29 02:58:54;;;;;;;;;;;12.50;99.90;;;;;;5032538;28;19910;-66
2022/12/29 03:01:29;;;;;;;;;;;12.50;99.90;;;;;;5032735;28;19941;-66
2022/12/29 03:04:04;;;;;;;;;;;12.40;99.90;;;;;;5032053;28;19955;-66
2022/12/29 03:06:29;;;;;;;;;;;12.40;99.90;;;;;;5031626;28;20383;-65
2022/12/29 03:09:01;;;;;;;;;;;12.50;99.90;;;;;;5032241;28;19909;-64
2022/12/29 03:17:10;;;;;;;;;;;12.30;99.90;;;;;;5032724;28;19961;-64
2022/12/29 03:19:37;;;;;;;;;;;12.40;99.90;;;;;;5031602;28;19994;-65
2022/12/29 03:24:54;;;;;;;;;;;12.40;99.90;;;;;;5032443;28;19928;-65
2022/12/29 03:27:22;;;;;;;;;;;12.30;99.90;;;;;;5031685;28;20264;-65
2022/12/29 03:29:53;;;;;;;;;;;12.30;99.90;;;;;;5047236;28;19909;-64
2022/12/29 03:32:19;;;;;;;;;;;12.40;99.90;;;;;;5031465;28;19970;-65
2022/12/29 03:34:46;;;;;;;;;;;12.40;99.90;;;;;;5031631;28;20364;-66
2022/12/29 03:37:14;;;;;;;;;;;12.40;99.90;;;;;;5031098;28;19913;-64
2022/12/29 03:39:40;;;;;;;;;;;12.40;99.90;;;;;;5030930;28;19924;-65
2022/12/29 03:42:09;;;;;;;;;;;12.40;99.90;;;;;;5027397;28;19939;-65
2022/12/29 03:44:36;;;;;;;;;;;12.50;99.90;;;;;;5031001;28;19956;-65
2022/12/29 03:47:01;;;;;;;;;;;12.50;99.90;;;;;;5031844;28;19909;-66
2022/12/29 03:49:27;;;;;;;;;;;12.50;99.90;;;;;;5031365;28;20587;-66
2022/12/29 03:51:52;;;;;;;;;;;12.40;99.90;;;;;;5030667;28;19921;-66
2022/12/29 03:54:18;;;;;;;;;;;12.40;99.90;;;;;;5031411;28;19913;-66
2022/12/29 03:56:43;;;;;;;;;;;12.30;99.90;;;;;;5030924;28;20007;-65
2022/12/29 03:59:09;;;;;;;;;;;12.30;99.90;;;;;;5031097;28;20629;-66
2022/12/29 04:01:34;;;;;;;;;;;12.30;99.90;;;;;;5031165;28;20011;-65
2022/12/29 04:03:59;;;;;;;;;;;12.30;99.90;;;;;;5031553;28;19910;-66
2022/12/29 04:06:25;;;;;;;;;;;12.20;99.90;;;;;;5031214;28;19917;-66
2022/12/29 04:08:50;;;;;;;;;;;12.30;99.90;;;;;;5030569;28;19916;-66
2022/12/29 04:11:16;;;;;;;;;;;12.20;99.90;;;;;;5031194;28;19913;-66
2022/12/29 04:13:41;;;;;;;;;;;12.40;99.90;;;;;;5030818;28;19937;-65
2022/12/29 04:16:08;;;;;;;;;;;12.30;99.90;;;;;;5030996;28;19993;-65
2022/12/29 04:18:33;;;;;;;;;;;12.30;99.90;;;;;;5031058;28;19919;-66
2022/12/29 04:21:03;;;;;;;;;;;12.30;99.90;;;;;;5030868;28;20345;-65
2022/12/29 04:23:29;;;;;;;;;;;12.50;99.90;;;;;;5030562;28;19913;-66
2022/12/29 04:25:55;;;;;;;;;;;12.40;99.90;;;;;;5026723;28;19924;-67
2022/12/29 04:28:20;;;;;;;;;;;12.30;99.90;;;;;;5030767;28;20004;-66
2022/12/29 04:30:46;;;;;;;;;;;12.30;99.90;;;;;;5030552;28;19913;-67
2022/12/29 04:33:11;;;;;;;;;;;12.20;99.90;;;;;;5029510;28;19913;-65
2022/12/29 04:35:37;;;;;;;;;;;12.30;99.90;;;;;;5030590;28;19939;-67
2022/12/29 04:38:03;;;;;;;;;;;12.30;99.90;;;;;;5030665;28;19909;-67
2022/12/29 04:40:28;;;;;;;;;;;12.30;99.90;;;;;;5064925;23;19929;-62
2022/12/29 04:42:54;;;;;;;;;;;12.40;99.90;;;;;;5049386;28;19920;-62
2022/12/29 04:45:19;;;;;;;;;;;12.30;99.90;;;;;;5048985;28;19927;-60
2022/12/29 04:47:45;;;;;;;;;;;12.30;99.90;;;;;;5050257;28;19924;-62
2022/12/29 04:50:10;;;;;;;;;;;12.50;99.90;;;;;;5050080;28;19917;-62
2022/12/29 04:52:36;;;;;;;;;;;12.40;99.90;;;;;;5049120;28;19923;-62
2022/12/29 04:55:01;;;;;;;;;;;12.30;99.90;;;;;;5050361;28;19963;-62
2022/12/29 04:57:27;;;;;;;;;;;12.50;99.90;;;;;;5049754;28;20367;-62
2022/12/29 04:59:52;;;;;;;;;;;12.50;99.90;;;;;;5049971;28;20004;-61
2022/12/29 05:02:18;;;;;;;;;;;12.50;99.90;;;;;;5049546;28;20339;-62
2022/12/29 05:04:43;;;;;;;;;;;12.60;99.90;;;;;;5049774;28;20267;-62
2022/12/29 05:07:09;;;;;;;;;;;12.50;99.90;;;;;;5050049;28;19944;-62
2022/12/29 05:09:34;;;;;;;;;;;12.60;99.90;;;;;;5049925;28;19913;-62
2022/12/29 05:12:00;;;;;;;;;;;12.70;99.90;;;;;;5049823;28;19992;-62
2022/12/29 05:14:25;;;;;;;;;;;12.70;99.90;;;;;;5049696;28;19909;-62
2022/12/29 05:16:51;;;;;;;;;;;12.60;99.90;;;;;;5050263;28;20310;-61
2022/12/29 05:19:16;;;;;;;;;;;12.50;99.90;;;;;;5048481;28;19917;-63
2022/12/29 05:21:42;;;;;;;;;;;12.50;99.90;;;;;;5050505;28;19913;-61
2022/12/29 05:24:08;;;;;;;;;;;12.50;99.90;;;;;;5049718;28;20532;-62
2022/12/29 05:26:33;;;;;;;;;;;12.40;99.90;;;;;;5049711;28;19913;-62
2022/12/29 05:28:59;;;;;;;;;;;12.40;99.90;;;;;;5049680;28;19986;-61
2022/12/29 05:31:25;;;;;;;;;;;12.50;99.90;;;;;;5049413;28;19913;-60
2022/12/29 05:33:50;;;;;;;;;;;12.40;99.90;;;;;;5049774;28;19919;-61
2022/12/29 05:36:16;;;;;;;;;;;12.40;99.90;;;;;;5050692;28;19909;-60
2022/12/29 05:38:41;;;;;;;;;;;12.50;99.90;;;;;;5053556;28;19974;-61
2022/12/29 05:41:07;;;;;;;;;;;12.50;99.90;;;;;;5052749;28;19913;-59
2022/12/29 05:43:32;;;;;;;;;;;12.50;99.90;;;;;;5053199;28;20376;-60
2022/12/29 05:45:58;;;;;;;;;;;12.50;99.90;;;;;;5052639;28;19912;-60
2022/12/29 05:48:23;;;;;;;;;;;12.50;99.90;;;;;;5053842;28;19909;-61
2022/12/29 05:50:49;;;;;;;;;;;12.50;99.90;;;;;;5054004;28;19915;-61
2022/12/29 05:53:15;;;;;;;;;;;12.40;99.90;;;;;;5053432;28;19915;-63
2022/12/29 05:55:41;;;;;;;;;;;12.40;99.90;;;;;;5051479;28;19912;-62
2022/12/29 05:58:06;;;;;;;;;;;12.50;99.90;;;;;;5052943;28;19970;-62
2022/12/29 06:00:32;;;;;;;;;;;12.50;99.90;;;;;;5053495;28;20244;-62
2022/12/29 06:02:57;;;;;;;;;;;12.60;99.90;;;;;;5053059;28;19939;-62
2022/12/29 06:05:22;;;;;;;;;;;12.60;99.90;;;;;;5053394;28;19958;-62
2022/12/29 06:07:48;;;;;;;;;;;12.50;99.90;;;;;;5053340;28;19913;-61
2022/12/29 06:10:13;;;;;;;;;;;12.60;99.90;;;;;;5053363;28;19956;-60
2022/12/29 06:12:39;;;;;;;;;;;12.60;99.90;;;;;;5052434;28;19912;-62
2022/12/29 06:15:05;;;;;;;;;;;12.60;99.90;;;;;;5053433;28;19934;-61
2022/12/29 06:17:30;;;;;;;;;;;12.70;99.90;;;;;;5052689;28;19917;-62
2022/12/29 06:19:55;;;;;;;;;;;12.70;99.90;;;;;;5052762;28;20312;-63
2022/12/29 06:22:21;;;;;;;;;;;12.70;99.90;;;;;;5052560;28;19920;-61
2022/12/29 06:24:46;;;;;;;;;;;12.70;99.90;;;;;;5052254;28;20074;-62
2022/12/29 06:27:13;;;;;;;;;;;12.70;99.90;;;;;;5051168;28;19920;-63
2022/12/29 06:29:40;;;;;;;;;;;12.60;99.90;;;;;;5052270;28;19913;-61
2022/12/29 06:32:06;;;;;;;;;;;12.60;99.90;;;;;;5052905;28;20017;-62
2022/12/29 06:34:31;;;;;;;;;;;12.50;99.90;;;;;;5052361;28;20021;-63
2022/12/29 06:36:57;;;;;;;;;;;12.40;99.90;;;;;;5052097;28;20695;-63
2022/12/29 06:39:22;;;;;;;;;;;12.40;99.90;;;;;;5052175;28;20008;-63
2022/12/29 06:41:48;;;;;;;;;;;12.50;99.90;;;;;;5051827;28;19923;-61
2022/12/29 06:44:13;;;;;;;;;;;12.50;99.90;;;;;;5052486;28;19925;-60
2022/12/29 06:46:39;;;;;;;;;;;12.40;99.90;;;;;;5052572;28;20256;-62
2022/12/29 06:49:04;;;;;;;;;;;12.30;99.90;;;;;;5052670;28;19908;-62
2022/12/29 06:51:29;;;;;;;;;;;12.30;99.90;;;;;;5051361;28;19912;-62
2022/12/29 06:53:55;;;;;;;;;;;12.30;99.90;;;;;;5051926;28;19909;-63
2022/12/29 06:56:20;;;;;;;;;;;12.40;99.90;;;;;;5052200;28;19919;-61
2022/12/29 06:58:46;;;;;;;;;;;12.50;99.90;;;;;;5052272;28;19909;-62
2022/12/29 07:01:11;;;;;;;;;;;12.60;99.90;;;;;;5052510;28;19959;-62
2022/12/29 07:03:37;;;;;;;;;;;12.60;99.90;;;;;;5052214;28;20011;-62
2022/12/29 07:06:02;;;;;;;;;;;12.60;99.90;;;;;;5051414;28;19924;-64
2022/12/29 07:08:28;;;;;;;;;;;12.60;99.90;;;;;;5051805;28;19917;-62
2022/12/29 07:10:53;;;;;;;;;;;12.50;99.90;;;;;;5051928;28;19916;-63
2022/12/29 07:13:19;;;;;;;;;;;12.60;99.90;;;;;;5051935;28;19966;-62
2022/12/29 07:15:44;;;;;;;;;;;12.50;99.90;;;;;;5051672;28;19912;-63
2022/12/29 07:18:09;;;;;;;;;;;12.50;99.90;;;;;;5051557;28;20000;-60
2022/12/29 07:20:35;;;;;;;;;;;12.50;99.90;;;;;;5051804;28;19916;-61
2022/12/29 07:23:01;;;;;;;;;;;12.40;99.90;;;;;;5051615;28;19917;-61
2022/12/29 07:25:27;;;;;;;;;;;12.40;99.90;;;;;;5051472;28;19959;-62
2022/12/29 07:27:53;;;;;;;;;;;12.30;99.90;;;;;;5050260;28;19935;-60
2022/12/29 07:30:19;;;;;;;;;;;12.40;99.90;;;;;;5051262;28;20373;-62
2022/12/29 07:32:44;;;;;;;;;;;12.30;99.90;;;;;;5051129;28;19966;-60
2022/12/29 07:35:09;;;;;;;;;;;12.30;99.90;;;;;;5051676;28;19913;-62
2022/12/29 07:37:35;;;;;;;;;;;12.20;99.90;;;;;;5051992;28;19920;-61
2022/12/29 07:40:01;;;;;;;;;;;12.30;99.90;;;;;;5050577;28;20402;-62
2022/12/29 07:42:26;;;;;;;;;;;12.30;99.90;;;;;;5051062;28;19920;-62
2022/12/29 07:44:52;;;;;;;;;;;12.30;99.90;;;;;;5051342;28;20003;-61
2022/12/29 07:47:17;;;;;;;;;;;12.20;99.90;;;;;;5050850;28;20016;-60
2022/12/29 07:49:43;;;;;;;;;;;12.10;99.90;;;;;;5050443;28;20008;-62
2022/12/29 07:52:08;;;;;;;;;;;12.20;99.90;;;;;;5050542;28;19913;-61
2022/12/29 07:54:34;;;;;;;;;;;12.20;99.90;;;;;;5051201;28;19909;-62
2022/12/29 07:57:00;;;;;;;;;;;12.30;99.90;;;;;;5051486;28;19948;-62
2022/12/29 07:59:25;;;;;;;;;;;12.20;99.90;;;;;;5050467;28;20371;-62
2022/12/29 08:01:51;;;;;;;;;;;12.20;99.90;;;;;;5050799;28;19919;-62
2022/12/29 08:04:16;;;;;;;;;;;12.20;99.90;;;;;;5049958;28;20380;-63
2022/12/29 08:06:42;;;;;;;;;;;12.20;99.90;;;;;;5051148;28;19909;-63
2022/12/29 08:09:08;;;;;;;;;;;12.30;99.90;;;;;;5050912;28;20016;-62
2022/12/29 08:11:33;;;;;;;;;;;12.30;99.90;;;;;;5050400;28;20011;-62
2022/12/29 08:13:58;;;;;;;;;;;12.20;99.90;;;;;;5050616;28;20379;-62
2022/12/29 08:16:24;;;;;;;;;;;12.20;99.90;;;;;;5050625;28;19968;-62
2022/12/29 08:18:49;;;;;;;;;;;12.20;99.90;;;;;;5050413;28;19915;-63
2022/12/29 08:21:15;;;;;;;;;;;12.20;99.90;;;;;;5050837;28;20434;-63
2022/12/29 08:23:40;;;;;;;;;;;12.20;99.90;;;;;;5050840;28;20366;-62
2022/12/29 08:26:06;;;;;;;;;;;12.30;99.90;;;;;;5050446;28;20272;-63
2022/12/29 08:28:32;;;;;;;;;;;12.30;99.90;;;;;;5050596;28;19920;-63
2022/12/29 08:30:58;;;;;;;;;;;12.30;99.90;;;;;;5050396;28;19916;-62
2022/12/29 08:33:24;;;;;;;;;;;12.20;99.90;;;;;;5043608;28;19916;-61
2022/12/29 08:35:49;;;;;;;;;;;12.20;99.90;;;;;;5050165;28;19916;-63
2022/12/29 08:38:15;;;;;;;;;;;12.20;99.90;;;;;;5050527;28;19954;-63
2022/12/29 08:40:40;;;;;;;;;;;12.20;99.90;;;;;;5049869;28;20403;-63
2022/12/29 08:43:06;;;;;;;;;;;12.00;99.90;;;;;;5049471;28;19920;-62
2022/12/29 08:45:31;;;;;;;;;;;12.20;99.90;;;;;;5049894;28;20038;-63
2022/12/29 08:47:57;;;;;;;;;;;12.10;99.90;;;;;;5049771;28;19908;-63
2022/12/29 08:50:22;;;;;;;;;;;12.10;99.90;;;;;;5049954;28;19913;-63
2022/12/29 08:52:48;;;;;;;;;;;12.20;99.90;;;;;;5050451;28;20003;-62
2022/12/29 08:55:13;;;;;;;;;;;12.20;99.90;;;;;;5050308;28;19913;-63
2022/12/29 08:57:39;;;;;;;;;;;12.10;99.90;;;;;;5049915;28;19912;-60
2022/12/29 09:00:04;;;;;;;;;;;12.10;99.90;;;;;;5049298;28;19920;-61
2022/12/29 09:02:30;;;;;;;;;;;12.20;99.90;;;;;;5049869;28;20268;-59
2022/12/29 09:04:57;;;;;;;;;;;12.10;99.90;;;;;;5050108;28;19971;-61
2022/12/29 09:07:23;;;;;;;;;;;12.20;99.90;;;;;;5050280;28;20259;-61
2022/12/29 09:09:48;;;;;;;;;;;12.20;99.90;;;;;;5050044;28;19916;-62
2022/12/29 09:12:13;;;;;;;;;;;12.20;99.90;;;;;;5051306;28;19909;-62
2022/12/29 09:14:39;;;;;;;;;;;12.20;99.90;;;;;;5053986;28;19913;-62
2022/12/29 09:19:48;;;;;;;;;;;12.20;99.90;;;;;;5048787;28;19963;-63
2022/12/29 09:22:14;;;;;;;;;;;12.20;99.90;;;;;;5053484;28;20370;-63
2022/12/29 09:24:39;;;;;;;;;;;12.10;99.90;;;;;;5053776;28;20336;-60
2022/12/29 09:27:05;;;;;;;;;;;12.20;99.90;;;;;;5054343;28;19916;-63
2022/12/29 09:29:30;;;;;;;;;;;12.20;99.90;;;;;;5053843;28;19916;-63
2022/12/29 09:31:56;;;;;;;;;;;12.30;99.90;;;;;;5054201;28;19909;-63
2022/12/29 09:34:21;;;;;;;;;;;12.30;99.90;;;;;;5053343;28;20261;-63
2022/12/29 09:36:47;;;;;;;;;;;12.30;99.90;;;;;;5053621;28;19921;-63
2022/12/29 09:39:12;;;;;;;;;;;12.40;99.90;;;;;;5053434;28;19920;-64
2022/12/29 09:42:04;;;;;;;;;;;12.40;99.90;;;;;;5053458;28;19916;-62
2022/12/29 09:44:48;;;;;;;;;;;12.40;99.90;;;;;;5049962;28;19920;-62
2022/12/29 09:47:15;;;;;;;;;;;12.40;99.90;;;;;;5049199;28;19934;-63
2022/12/29 09:49:46;;;;;;;;;;;12.50;99.90;;;;;;5053491;28;19909;-63
2022/12/29 09:52:18;;;;;;;;;;;12.50;99.90;;;;;;5053238;28;19915;-63
2022/12/29 09:54:50;;;;;;;;;;;12.60;99.90;;;;;;5053734;28;19970;-64
2022/12/29 09:57:27;;;;;;;;;;;12.60;99.90;;;;;;5053648;28;19948;-64
2022/12/29 09:59:59;;;;;;;;;;;12.60;99.90;;;;;;5052998;28;20275;-61
2022/12/29 10:02:33;;;;;;;;;;;12.70;99.90;;;;;;5052844;28;20003;-64
2022/12/29 10:04:58;;;;;;;;;;;12.70;99.90;;;;;;5054015;28;20059;-63
2022/12/29 10:07:43;;;;;;;;;;;12.70;99.90;;;;;;5053456;28;20003;-62
2022/12/29 10:10:11;;;;;;;;;;;12.70;99.90;;;;;;5052613;28;19912;-63
2022/12/29 10:12:45;;;;;;;;;;;12.70;99.90;;;;;;5053054;28;20339;-62
2022/12/29 10:15:32;;;;;;;;;;;12.60;99.90;;;;;;5053846;28;19919;-62
2022/12/29 10:18:16;;;;;;;;;;;12.70;99.90;;;;;;5053149;28;19920;-63
2022/12/29 10:20:49;;;;;;;;;;;12.80;99.90;;;;;;5052879;28;20267;-62
2022/12/29 10:23:21;;;;;;;;;;;12.90;99.90;;;;;;5052403;28;19913;-62
2022/12/29 10:25:47;;;;;;;;;;;12.90;99.90;;;;;;5053446;28;20343;-64
2022/12/29 10:28:21;;;;;;;;;;;13.00;99.90;;;;;;5053230;28;19948;-62
2022/12/29 10:30:48;;;;;;;;;;;13.00;99.90;;;;;;5052534;28;19913;-63
2022/12/29 10:33:18;;;;;;;;;;;13.00;99.90;;;;;;5047480;28;20008;-61
2022/12/29 10:35:43;;;;;;;;;;;13.00;99.90;;;;;;5052508;28;19913;-63
2022/12/29 10:38:13;;;;;;;;;;;13.00;99.90;;;;;;5052910;28;19962;-62
2022/12/29 10:40:57;;;;;;;;;;;13.10;99.90;;;;;;5072915;22;19925;-66
2022/12/29 10:43:25;;;;;;;;;;;13.10;99.90;;;;;;5068212;28;19913;-66
2022/12/29 10:45:52;;;;;;;;;;;13.00;99.90;;;;;;5067734;28;20428;-66
2022/12/29 10:48:22;;;;;;;;;;;13.00;99.90;;;;;;5068752;28;19917;-65
2022/12/29 10:50:49;;;;;;;;;;;13.10;99.90;;;;;;5075009;28;20034;-64
2022/12/29 10:53:19;;;;;;;;;;;13.10;99.90;;;;;;5071257;28;20370;-66
2022/12/29 10:55:45;;;;;;;;;;;13.10;99.90;;;;;;5072839;28;19923;-66
2022/12/29 10:58:12;;;;;;;;;;;13.10;99.90;;;;;;5072824;28;19908;-66
2022/12/29 11:00:37;;;;;;;;;;;13.10;99.90;;;;;;5072455;28;19912;-66
2022/12/29 11:03:18;;;;;;;;;;;13.10;99.90;;;;;;5071911;28;20007;-65
2022/12/29 11:05:47;;;;;;;;;;;13.10;99.90;;;;;;5081091;28;19916;-66
2022/12/29 11:08:15;;;;;;;;;;;13.10;99.90;;;;;;5087510;28;19912;-66
2022/12/29 11:10:42;;;;;;;;;;;13.10;99.90;;;;;;5092011;28;19999;-66
2022/12/29 11:13:18;;;;;;;;;;;13.10;99.90;;;;;;5091553;28;20049;-67
2022/12/29 11:15:47;;;;;;;;;;;13.20;99.90;;;;;;5092181;28;19908;-65
2022/12/29 11:18:39;;;;;;;;;;;13.10;99.90;;;;;;5076141;28;20358;-65
2022/12/29 11:21:06;;;;;;;;;;;13.10;99.90;;;;;;5063587;28;19920;-65
2022/12/29 11:23:36;;;;;;;;;;;13.20;99.90;;;;;;5072373;28;20259;-64
2022/12/29 11:26:14;;;;;;;;;;;13.10;99.90;;;;;;5072014;28;19913;-64
2022/12/29 11:28:41;;;;;;;;;;;13.10;99.90;;;;;;5072273;28;20386;-65
2022/12/29 11:31:07;;;;;;;;;;;13.10;99.90;;;;;;5078753;28;19919;-67
2022/12/29 11:33:33;;;;;;;;;;;13.10;99.90;;;;;;5082041;28;19912;-64
2022/12/29 11:36:02;;;;;;;;;;;13.10;99.90;;;;;;5082533;28;19908;-64
2022/12/29 11:38:33;;;;;;;;;;;13.10;99.90;;;;;;5085453;28;19919;-66
2022/12/29 11:40:58;;;;;;;;;;;13.10;99.90;;;;;;5088050;28;19947;-65
2022/12/29 11:43:43;;;;;;;;;;;13.10;99.90;;;;;;5090685;28;20360;-66
2022/12/29 11:46:20;;;;;;;;;;;12.90;99.90;;;;;;5072789;28;19916;-66
2022/12/29 11:48:46;;;;;;;;;;;12.90;99.90;;;;;;5071687;28;20382;-66
2022/12/29 11:51:11;;;;;;;;;;;12.90;99.90;;;;;;5080484;28;19958;-66
2022/12/29 11:53:48;;;;;;;;;;;12.90;99.90;;;;;;5090751;28;19951;-66
2022/12/29 11:56:19;;;;;;;;;;;12.80;99.90;;;;;;5092403;28;19953;-65
2022/12/29 11:58:44;;;;;;;;;;;12.90;99.90;;;;;;5078218;28;19944;-65
2022/12/29 12:01:13;;;;;;;;;;;12.80;99.90;;;;;;5085464;28;19912;-66
2022/12/29 12:03:43;;;;;;;;;;;12.80;99.90;;;;;;5092121;28;19914;-65
2022/12/29 12:06:12;;;;;;;;;;;12.80;99.90;;;;;;5087819;28;19928;-65
2022/12/29 12:08:51;;;;;;;;;;;12.80;99.90;;;;;;5071040;28;20381;-66
2022/12/29 12:11:35;;;;;;;;;;;12.80;99.90;;;;;;5072306;28;20359;-66
2022/12/29 12:14:04;;;;;;;;;;;12.80;99.90;;;;;;5087263;28;19918;-65
2022/12/29 12:16:35;;;;;;;;;;;12.80;99.90;;;;;;5092521;28;19909;-66
2022/12/29 12:19:23;;;;;;;;;;;12.80;99.90;;;;;;5092612;28;19950;-65
2022/12/29 12:21:51;;;;;;;;;;;12.80;99.90;;;;;;5077054;28;19958;-66
2022/12/29 12:24:35;;;;;;;;;;;12.90;99.90;;;;;;5072492;28;19943;-64
2022/12/29 12:27:01;;;;;;;;;;;12.90;99.90;;;;;;5089991;28;19908;-66
2022/12/29 12:29:42;;;;;;;;;;;12.80;99.90;;;;;;5091951;28;20271;-65
2022/12/29 12:32:11;;;;;;;;;;;12.70;99.90;;;;;;5088188;28;19917;-66
2022/12/29 12:34:41;;;;;;;;;;;12.80;99.90;;;;;;5076050;28;19923;-66
2022/12/29 12:37:13;;;;;;;;;;;12.80;99.90;;;;;;5072331;28;19995;-66
2022/12/29 12:39:39;;;;;;;;;;;12.70;99.90;;;;;;5080040;28;20378;-67
2022/12/29 12:42:10;;;;;;;;;;;12.70;99.90;;;;;;5069615;28;20020;-67
2022/12/29 12:44:36;;;;;;;;;;;12.70;99.90;;;;;;5084046;28;19920;-67
2022/12/29 12:47:01;;;;;;;;;;;12.70;99.90;;;;;;5080694;28;19912;-64
2022/12/29 12:49:39;;;;;;;;;;;12.60;99.90;;;;;;5091432;28;19908;-63
2022/12/29 12:52:07;;;;;;;;;;;12.70;99.90;;;;;;5075774;28;20003;-66
2022/12/29 12:54:39;;;;;;;;;;;12.70;99.90;;;;;;5072394;28;19965;-65
2022/12/29 12:57:18;;;;;;;;;;;12.70;99.90;;;;;;5072213;28;19912;-66
2022/12/29 12:59:43;;;;;;;;;;;12.80;99.90;;;;;;5082773;28;19908;-65
2022/12/29 13:02:27;;;;;;;;;;;13.00;99.90;;;;;;5090980;28;19939;-65
2022/12/29 13:05:05;;;;;;;;;;;13.20;99.90;;;;;;5087712;28;19939;-65
2022/12/29 13:07:48;;;;;;;;;;;13.10;99.90;;;;;;5066563;28;19909;-65
2022/12/29 13:10:17;;;;;;;;;;;13.00;99.90;;;;;;5071878;28;19911;-65
2022/12/29 13:12:52;;;;;;;;;;;12.80;99.90;;;;;;5071259;28;20374;-64
2022/12/29 13:15:36;;;;;;;;;;;12.70;99.90;;;;;;5071921;28;19944;-65
2022/12/29 13:18:17;;;;;;;;;;;12.60;99.90;;;;;;5072011;28;20413;-65
2022/12/29 13:20:58;;;;;;;;;;;12.50;99.90;;;;;;5071886;28;19931;-66
2022/12/29 13:23:34;;;;;;;;;;;12.40;99.90;;;;;;5086812;28;20396;-64
2022/12/29 13:26:00;;;;;;;;;;;12.30;99.90;;;;;;5089351;28;20369;-66
2022/12/29 13:28:30;;;;;;;;;;;12.30;99.90;;;;;;5089260;28;19919;-65
2022/12/29 13:31:09;;;;;;;;;;;12.30;99.90;;;;;;5085744;28;19912;-65
2022/12/29 13:33:48;;;;;;;;;;;12.30;99.90;;;;;;5072682;28;19956;-66
2022/12/29 13:36:34;;;;;;;;;;;12.30;99.90;;;;;;5071259;28;19908;-65
2022/12/29 13:39:05;;;;;;;;;;;12.20;99.90;;;;;;5069725;28;19908;-65
2022/12/29 13:41:37;;;;;;;;;;;12.20;99.90;;;;;;5085517;28;20301;-65
2022/12/29 13:44:03;;;;;;;;;;;12.20;99.90;;;;;;5080470;28;19912;-64
2022/12/29 13:46:33;;;;;;;;;;;12.10;99.90;;;;;;5071232;28;20358;-65
2022/12/29 13:49:01;;;;;;;;;;;12.20;99.90;;;;;;5071462;28;19916;-66
2022/12/29 13:51:26;;;;;;;;;;;12.20;99.90;;;;;;5071647;28;19915;-65
2022/12/29 13:54:03;;;;;;;;;;;12.20;99.90;;;;;;5069673;28;20369;-66
2022/12/29 13:56:35;;;;;;;;;;;12.10;99.90;;;;;;5073468;28;19913;-64
2022/12/29 13:59:17;;;;;;;;;;;12.10;99.90;;;;;;5093394;28;19931;-67
2022/12/29 14:01:47;;;;;;;;;;;12.10;99.90;;;;;;5090130;28;19912;-66
2022/12/29 14:04:14;;;;;;;;;;;12.10;99.90;;;;;;5094285;28;19995;-64
2022/12/29 14:06:42;;;;;;;;;;;12.10;99.90;;;;;;5094357;28;20388;-66
2022/12/29 14:09:26;;;;;;;;;;;12.00;99.90;;;;;;5094326;28;19915;-64
2022/12/29 14:11:52;;;;;;;;;;;11.90;99.90;;;;;;5074736;28;20005;-65
2022/12/29 14:14:17;;;;;;;;;;;11.90;99.90;;;;;;5074211;28;20381;-64
2022/12/29 14:16:42;;;;;;;;;;;11.80;99.90;;;;;;5080371;28;19994;-65
2022/12/29 14:19:20;;;;;;;;;;;11.80;99.90;;;;;;5094164;28;19974;-65
2022/12/29 14:22:00;;;;;;;;;;;11.70;99.90;;;;;;5094134;28;19916;-65
2022/12/29 14:24:27;;;;;;;;;;;11.70;99.90;;;;;;5093957;28;19951;-65
2022/12/29 14:26:52;;;;;;;;;;;11.60;99.90;;;;;;5081830;28;19919;-65
2022/12/29 14:29:38;;;;;;;;;;;11.60;99.90;;;;;;5074672;28;19908;-66
2022/12/29 14:32:23;;;;;;;;;;;11.50;99.90;;;;;;5093312;28;20381;-65
2022/12/29 14:34:49;;;;;;;;;;;11.50;99.90;;;;;;5093817;28;20297;-64
2022/12/29 14:37:28;;;;;;;;;;;11.40;99.90;;;;;;5079432;28;19919;-66
2022/12/29 14:40:19;;;;;;;;;;;11.40;99.90;;;;;;5074473;28;19919;-64
2022/12/29 14:42:48;;;;;;;;;;;11.30;99.90;;;;;;5071194;28;19939;-65
2022/12/29 14:45:13;;;;;;;;;;;11.30;99.90;;;;;;5074222;28;19920;-64
2022/12/29 14:47:41;;;;;;;;;;;11.20;99.90;;;;;;5089694;28;19919;-66
2022/12/29 14:50:08;;;;;;;;;;;11.20;99.90;;;;;;5093667;28;19916;-66
2022/12/29 14:52:45;;;;;;;;;;;11.20;99.90;;;;;;5085898;28;20374;-68
2022/12/29 14:55:16;;;;;;;;;;;11.20;99.90;;;;;;5074226;28;19920;-66
2022/12/29 14:57:48;;;;;;;;;;;11.20;99.90;;;;;;5074166;28;19909;-67
2022/12/29 15:00:22;;;;;;;;;;;11.20;99.90;;;;;;5074084;28;19918;-65
2022/12/29 15:02:50;;;;;;;;;;;11.20;99.90;;;;;;5082284;28;19912;-67
2022/12/29 15:05:29;;;;;;;;;;;11.20;99.90;;;;;;5074073;28;20343;-68
2022/12/29 15:07:55;;;;;;;;;;;11.10;99.90;;;;;;5073920;28;19915;-68